Newport News, VA

5:33 AM EST on February 08, 2016 (GMT -0500)
Felker Army Air Field | | Change Station
CLOSE
Current Station
Airport
Location: Fort Eustis,
Elevation: 13 ft
Nearby Weather Stations

Elev 13 ft 37.13 °N, 76.61 °W | Updated 35 minutes ago

Clear
Clear
39 °F
Feels Like 34 °F
N
8
Wind Variable Wind from NNW

Today
High -- | Low -- °F
--% Chance of Precip.
Yesterday
High -- | Low -- °F
Precip. -- in
Pressure 29.74 in
Visibility 10.0 miles
Clouds Clear
Windchill 34 °F
Dew Point 21 °F
Humidity 47%
Rainfall 0.00 in
Snow Depth Not available.
7:03 AM 5:38 PM
Waning Crescent, 0% visible
METAR KFAF 080958Z AUTO 33007KT 10SM CLR 04/M06 A2973 RMK AO2 SLP071 T00401063 $
Pressure 29.74 in
Visibility 10.0 miles
Clouds Clear
Windchill 34 °F
Dew Point 21 °F
Humidity 47%
Rainfall 0.00 in
Snow Depth Not available.
7:03 AM 5:38 PM
Waning Crescent, 0% visible
METAR KFAF 080958Z AUTO 33007KT 10SM CLR 04/M06 A2973 RMK AO2 SLP071 T00401063 $

10-Day Weather Forecast

Almanac

Astronomy

Feb. 08, 2016 Rise Set
Actual Time
Civil Twilight
Nautical Twilight
Astronomical Twilight
Moon
Length of Visible Light
Length of Day
Tomorrow will be .
, % of the Moon is Illuminated

Today's Extremes

State Highs State Lows

Community

WunderPhotos

Upload Photos

1,891,420 photos uploaded!

WunderBlog® & News

Nearby

Air Quality

  Air Quality AQ Index Pollutant
Not available.

Snow Depth

Station Depth Elevation

Earthquake Activity

City Distance Mag. Time & Date
Minimum magnitude displayed is 2.5.

Coastal Water Temperatures

Place Temperature

Stations

Nearby Weather Stations

Station Location Temp. Windchill Dew Point Humidity Wind Precip. Elev Updated Type
                   

Watches & Warnings

There are currently no watches in effect.